TRA841G EHRD-LGKO
Flight info
| Callsign | TRA841G |
|---|---|
| Flight time | N/A |
| Altitude | 37000 |
| Route | LUNIX Z739 MISGO DCT TIVUN DCT NEGIX DCT DINKU DCT BESNI DCT LATLO DCT OBEDI DCT GORPA DCT DEVUL DCT REMSO DCT MEDUX UM867 KOGAT DCT ERANA UL737 TSL UN130 MES UN139 LURUS L995 KOPAR |
| Aircraft | B738/M-SDE2E3FGHIJ1RWXYZ/LB1 |
Departure
| Time | N/A |
|---|---|
| Airport | Rotterdam The Hague Airport (EHRD) |
Arrival
| Time | 2026-05-04 16:16 |
|---|---|
| Airport | Kos International Airport "Ippokratis" (LGKO) |
| Time | Latitude | Longitude | Altitude | Speed | Heading |
|---|---|---|---|---|---|
| 2026-05-04 15:40 | 38.87134 | 25.11722 | 37085 ft | 464 kts | 134° |
| 2026-05-04 15:40 | 38.84854 | 25.14657 | 37087 ft | 465 kts | 134° |
| 2026-05-04 15:41 | 38.80290 | 25.20526 | 37084 ft | 465 kts | 134° |
| 2026-05-04 15:41 | 38.75718 | 25.26392 | 37087 ft | 465 kts | 134° |
| 2026-05-04 15:42 | 38.71142 | 25.32252 | 37084 ft | 465 kts | 134° |
| 2026-05-04 15:42 | 38.66589 | 25.38071 | 37086 ft | 466 kts | 134° |
| 2026-05-04 15:43 | 38.62000 | 25.43926 | 37085 ft | 466 kts | 134° |
| 2026-05-04 15:43 | 38.57386 | 25.49740 | 37082 ft | 467 kts | 138° |
| 2026-05-04 15:44 | 38.51906 | 25.54155 | 37091 ft | 467 kts | 154° |
| 2026-05-04 15:44 | 38.48955 | 25.55940 | 36738 ft | 473 kts | 155° |
| 2026-05-04 15:44 | 38.45978 | 25.57704 | 36385 ft | 468 kts | 155° |
| 2026-05-04 15:44 | 38.43041 | 25.59446 | 35951 ft | 464 kts | 154° |
| 2026-05-04 15:45 | 38.40133 | 25.61184 | 35541 ft | 460 kts | 154° |
| 2026-05-04 15:45 | 38.37251 | 25.62922 | 35126 ft | 456 kts | 154° |
| 2026-05-04 15:45 | 38.34395 | 25.64657 | 34721 ft | 453 kts | 153° |
| 2026-05-04 15:45 | 38.31569 | 25.66380 | 34316 ft | 449 kts | 153° |
| 2026-05-04 15:46 | 38.28763 | 25.68093 | 33885 ft | 446 kts | 153° |
| 2026-05-04 15:46 | 38.25975 | 25.69795 | 33421 ft | 442 kts | 153° |
| 2026-05-04 15:46 | 38.23217 | 25.71478 | 33023 ft | 437 kts | 152° |
| 2026-05-04 15:46 | 38.20490 | 25.73140 | 32611 ft | 433 kts | 152° |
| 2026-05-04 15:47 | 38.18694 | 25.74233 | 32365 ft | 430 kts | 152° |
| 2026-05-04 15:47 | 38.16007 | 25.75867 | 31972 ft | 426 kts | 152° |
| 2026-05-04 15:47 | 38.13350 | 25.77483 | 31584 ft | 422 kts | 152° |
| 2026-05-04 15:47 | 38.10710 | 25.79086 | 31209 ft | 418 kts | 152° |
| 2026-05-04 15:48 | 38.08098 | 25.80670 | 30836 ft | 415 kts | 151° |
| 2026-05-04 15:48 | 38.05505 | 25.82243 | 30464 ft | 411 kts | 151° |
| 2026-05-04 15:48 | 38.00387 | 25.85342 | 29668 ft | 404 kts | 151° |
| 2026-05-04 15:49 | 37.97862 | 25.86869 | 29296 ft | 399 kts | 151° |
| 2026-05-04 15:49 | 37.95370 | 25.88375 | 28909 ft | 395 kts | 151° |
| 2026-05-04 15:49 | 37.92902 | 25.89866 | 28522 ft | 391 kts | 151° |
| 2026-05-04 15:49 | 37.90454 | 25.91344 | 28154 ft | 387 kts | 151° |
| 2026-05-04 15:50 | 37.88032 | 25.92805 | 27763 ft | 385 kts | 151° |
| 2026-05-04 15:50 | 37.85627 | 25.94255 | 27410 ft | 381 kts | 152° |
| 2026-05-04 15:50 | 37.83242 | 25.95692 | 27032 ft | 379 kts | 152° |
| 2026-05-04 15:50 | 37.80869 | 25.97120 | 26668 ft | 376 kts | 152° |
| 2026-05-04 15:51 | 37.78509 | 25.98539 | 26305 ft | 374 kts | 152° |
| 2026-05-04 15:51 | 37.76168 | 25.99947 | 25946 ft | 372 kts | 152° |
| 2026-05-04 15:51 | 37.73834 | 26.01349 | 25589 ft | 370 kts | 153° |
| 2026-05-04 15:51 | 37.71516 | 26.02740 | 25237 ft | 368 kts | 153° |
| 2026-05-04 15:52 | 37.69206 | 26.04125 | 24889 ft | 367 kts | 153° |
| 2026-05-04 15:52 | 37.66907 | 26.05503 | 24535 ft | 365 kts | 153° |
| 2026-05-04 15:52 | 37.64612 | 26.06878 | 24187 ft | 364 kts | 153° |
| 2026-05-04 15:52 | 37.62356 | 26.08228 | 23844 ft | 363 kts | 154° |
| 2026-05-04 15:53 | 37.60070 | 26.09595 | 23449 ft | 364 kts | 154° |
| 2026-05-04 15:53 | 37.57787 | 26.10960 | 23060 ft | 363 kts | 154° |
| 2026-05-04 15:53 | 37.55515 | 26.12316 | 22666 ft | 360 kts | 154° |
| 2026-05-04 15:53 | 37.53258 | 26.13662 | 22341 ft | 357 kts | 154° |
| 2026-05-04 15:54 | 37.51019 | 26.14997 | 21981 ft | 355 kts | 154° |
| 2026-05-04 15:54 | 37.48788 | 26.16327 | 21639 ft | 354 kts | 153° |
| 2026-05-04 15:54 | 37.46573 | 26.17646 | 21294 ft | 352 kts | 153° |
| 2026-05-04 15:54 | 37.44364 | 26.18960 | 20953 ft | 350 kts | 153° |
| 2026-05-04 15:55 | 37.42171 | 26.20265 | 20615 ft | 348 kts | 153° |
| 2026-05-04 15:55 | 37.39984 | 26.21565 | 20281 ft | 347 kts | 153° |
| 2026-05-04 15:55 | 37.37804 | 26.22860 | 19946 ft | 346 kts | 153° |
| 2026-05-04 15:55 | 37.35637 | 26.24147 | 19610 ft | 344 kts | 153° |
| 2026-05-04 15:56 | 37.33471 | 26.25432 | 19281 ft | 343 kts | 153° |
| 2026-05-04 15:56 | 37.31316 | 26.26710 | 18946 ft | 342 kts | 153° |
| 2026-05-04 15:56 | 37.29164 | 26.27985 | 18610 ft | 342 kts | 153° |
| 2026-05-04 15:56 | 37.27012 | 26.29259 | 18281 ft | 341 kts | 153° |
| 2026-05-04 15:57 | 37.24897 | 26.30511 | 17901 ft | 341 kts | 153° |
| 2026-05-04 15:57 | 37.22755 | 26.31778 | 17549 ft | 339 kts | 153° |
| 2026-05-04 15:57 | 37.20626 | 26.33037 | 17207 ft | 338 kts | 153° |
| 2026-05-04 15:57 | 37.18501 | 26.34292 | 16874 ft | 336 kts | 153° |
| 2026-05-04 15:58 | 37.16390 | 26.35537 | 16548 ft | 335 kts | 153° |
| 2026-05-04 15:58 | 37.14284 | 26.36780 | 16214 ft | 334 kts | 153° |
| 2026-05-04 15:58 | 37.12190 | 26.38015 | 15891 ft | 332 kts | 153° |
| 2026-05-04 15:58 | 37.10100 | 26.39246 | 15565 ft | 331 kts | 153° |
| 2026-05-04 15:59 | 37.08019 | 26.40472 | 15248 ft | 330 kts | 153° |
| 2026-05-04 15:59 | 37.05938 | 26.41697 | 14922 ft | 329 kts | 153° |
| 2026-05-04 15:59 | 37.03869 | 26.42914 | 14594 ft | 329 kts | 153° |
| 2026-05-04 15:59 | 37.01802 | 26.44129 | 14275 ft | 328 kts | 153° |
| 2026-05-04 16:00 | 36.99734 | 26.45345 | 13962 ft | 328 kts | 153° |
| 2026-05-04 16:00 | 36.97672 | 26.46556 | 13602 ft | 328 kts | 153° |
| 2026-05-04 16:00 | 36.95609 | 26.47767 | 13255 ft | 327 kts | 153° |
| 2026-05-04 16:00 | 36.93558 | 26.48970 | 12927 ft | 325 kts | 153° |
| 2026-05-04 16:01 | 36.91517 | 26.50165 | 12603 ft | 323 kts | 153° |
| 2026-05-04 16:01 | 36.89595 | 26.51573 | 12262 ft | 319 kts | 136° |
| 2026-05-04 16:01 | 36.88193 | 26.53655 | 11969 ft | 310 kts | 115° |
| 2026-05-04 16:01 | 36.87303 | 26.56073 | 11650 ft | 305 kts | 108° |
| 2026-05-04 16:02 | 36.86503 | 26.58525 | 11328 ft | 305 kts | 108° |
| 2026-05-04 16:02 | 36.85699 | 26.60975 | 11002 ft | 304 kts | 109° |
| 2026-05-04 16:02 | 36.84055 | 26.65824 | 10379 ft | 303 kts | 109° |
| 2026-05-04 16:03 | 36.83227 | 26.68218 | 10186 ft | 297 kts | 112° |
| 2026-05-04 16:03 | 36.82074 | 26.70341 | 10032 ft | 294 kts | 130° |
| 2026-05-04 16:03 | 36.80699 | 26.72203 | 9772 ft | 292 kts | 131° |
| 2026-05-04 16:03 | 36.79316 | 26.74057 | 9475 ft | 291 kts | 131° |
| 2026-05-04 16:04 | 36.77948 | 26.75905 | 9185 ft | 289 kts | 131° |
| 2026-05-04 16:04 | 36.75241 | 26.79599 | 8619 ft | 287 kts | 130° |
| 2026-05-04 16:04 | 36.73902 | 26.81439 | 8334 ft | 286 kts | 130° |
| 2026-05-04 16:05 | 36.72564 | 26.83277 | 8060 ft | 286 kts | 130° |
| 2026-05-04 16:05 | 36.71231 | 26.85108 | 7783 ft | 285 kts | 130° |
| 2026-05-04 16:05 | 36.68775 | 26.88930 | 7203 ft | 280 kts | 114° |
| 2026-05-04 16:06 | 36.67927 | 26.91093 | 6937 ft | 277 kts | 110° |
| 2026-05-04 16:06 | 36.65726 | 26.96853 | 6208 ft | 275 kts | 112° |
| 2026-05-04 16:07 | 36.64594 | 26.99700 | 5833 ft | 273 kts | 112° |
| 2026-05-04 16:07 | 36.62128 | 27.05843 | 5444 ft | 255 kts | 111° |
| 2026-05-04 16:08 | 36.61337 | 27.07810 | 5356 ft | 254 kts | 111° |
| 2026-05-04 16:08 | 36.59607 | 27.13924 | 4849 ft | 241 kts | 73° |
| 2026-05-04 16:09 | 36.60621 | 27.17674 | 4327 ft | 220 kts | 61° |
| 2026-05-04 16:09 | 36.62054 | 27.20497 | 3944 ft | 170 kts | 21° |
| 2026-05-04 16:10 | 36.64098 | 27.20299 | 3637 ft | 148 kts | 350° |
| 2026-05-04 16:11 | 36.66675 | 27.18961 | 3125 ft | 123 kts | 332° |
| 2026-05-04 16:11 | 36.67413 | 27.18434 | 2960 ft | 121 kts | 331° |
| 2026-05-04 16:12 | 36.69588 | 27.16788 | 2474 ft | 125 kts | 329° |
| 2026-05-04 16:12 | 36.71776 | 27.15098 | 2014 ft | 122 kts | 330° |
| 2026-05-04 16:13 | 36.73221 | 27.13972 | 1677 ft | 122 kts | 329° |
| 2026-05-04 16:13 | 36.74665 | 27.12843 | 1353 ft | 123 kts | 330° |
| 2026-05-04 16:14 | 36.76154 | 27.11685 | 1023 ft | 129 kts | 329° |
| 2026-05-04 16:14 | 36.77684 | 27.10482 | 673 ft | 131 kts | 329° |
| 2026-05-04 16:15 | 36.79654 | 27.08966 | 428 ft | 55 kts | 328° |
| 2026-05-04 16:16 | 36.80137 | 27.08589 | 423 ft | 30 kts | 328° |
| 2026-05-04 16:16 | 36.80330 | 27.08656 | 425 ft | 16 kts | 109° |
| 2026-05-04 16:17 | 36.80137 | 27.08832 | 427 ft | 5 kts | 147° |
| 2026-05-04 16:18 | 36.80103 | 27.08858 | 427 ft | 1 kts | 148° |
| 2026-05-04 16:18 | 36.80101 | 27.08859 | 427 ft | 1 kts | 148° |
| 2026-05-04 16:19 | 36.80094 | 27.08948 | 424 ft | 3 kts | 88° |
| 2026-05-04 16:19 | 36.80094 | 27.08963 | 420 ft | 0 kts | 88° |